createdAt,value
2022-12-09T00:01:21.000Z,98.02
2022-12-09T00:03:48.988Z,98.37
2022-12-09T00:06:23.063Z,98.20
2022-12-09T00:08:51.093Z,98.32
2022-12-09T00:11:19.751Z,98.00
2022-12-09T00:13:56.283Z,97.81
2022-12-09T00:16:25.113Z,97.88
2022-12-09T00:18:52.968Z,98.25
2022-12-09T00:21:33.715Z,98.23
2022-12-09T00:24:07.508Z,98.17
2022-12-09T00:26:34.945Z,98.03
2022-12-09T00:29:02.199Z,98.17
2022-12-09T00:31:33.432Z,98.10
2022-12-09T00:34:05.059Z,98.22
2022-12-09T00:36:32.276Z,98.09
2022-12-09T00:38:59.823Z,98.26
2022-12-09T00:41:27.869Z,98.17
2022-12-09T00:43:55.046Z,98.18
2022-12-09T00:46:22.330Z,98.43
2022-12-09T00:48:49.551Z,98.33
2022-12-09T00:51:21.839Z,97.98
2022-12-09T00:53:54.342Z,98.01
2022-12-09T00:56:28.277Z,97.86
2022-12-09T00:58:57.439Z,97.96
2022-12-09T01:01:26.879Z,98.06
2022-12-09T01:03:54.462Z,97.69
2022-12-09T01:06:24.372Z,98.01
2022-12-09T01:08:52.309Z,97.96
2022-12-09T01:11:23.192Z,97.68
2022-12-09T01:13:51.375Z,97.88
2022-12-09T01:16:29.711Z,97.70
2022-12-09T01:19:01.229Z,97.92
2022-12-09T01:21:31.000Z,97.62
2022-12-09T01:23:58.674Z,98.00
2022-12-09T01:26:25.937Z,97.73
2022-12-09T01:28:55.349Z,97.84
2022-12-09T01:31:24.384Z,97.88
2022-12-09T01:33:52.511Z,97.86
2022-12-09T01:36:24.153Z,97.97
2022-12-09T01:38:52.145Z,97.83
2022-12-09T01:41:21.998Z,97.89
2022-12-09T01:44:14.254Z,97.74
2022-12-09T01:46:42.337Z,97.67
2022-12-09T01:49:19.600Z,97.73
2022-12-09T01:51:58.646Z,97.69
2022-12-09T01:54:25.844Z,98.07
2022-12-09T01:56:54.053Z,97.77
2022-12-09T01:59:22.882Z,97.75
2022-12-09T02:01:56.668Z,97.61
2022-12-09T02:04:25.444Z,97.88
2022-12-09T02:06:52.558Z,97.61
2022-12-09T02:09:20.167Z,98.14
2022-12-09T02:12:00.849Z,97.99
2022-12-09T02:14:39.731Z,97.74
2022-12-09T02:17:57.858Z,97.99
2022-12-09T02:21:05.120Z,97.78
2022-12-09T02:24:20.149Z,97.38
2022-12-09T02:27:05.820Z,98.05
2022-12-09T02:30:01.093Z,97.78
2022-12-09T02:32:59.354Z,97.73
2022-12-09T02:35:38.437Z,97.51
2022-12-09T02:38:20.401Z,97.71
2022-12-09T02:41:18.409Z,97.65
2022-12-09T02:43:55.362Z,97.89
2022-12-09T02:46:28.628Z,97.88
2022-12-09T02:48:58.688Z,97.81
2022-12-09T02:51:30.880Z,97.82
2022-12-09T02:54:05.390Z,97.75
2022-12-09T02:56:35.719Z,97.88
2022-12-09T02:59:03.620Z,97.74
2022-12-09T03:02:15.027Z,97.51
2022-12-09T03:04:45.507Z,97.82
2022-12-09T03:07:46.224Z,97.78
2022-12-09T03:10:29.606Z,97.41
2022-12-09T03:13:14.537Z,97.92
2022-12-09T03:15:49.325Z,97.72
2022-12-09T03:18:20.757Z,97.90
2022-12-09T03:20:50.358Z,97.74
2022-12-09T03:23:19.190Z,97.92
2022-12-09T03:25:52.269Z,97.71
2022-12-09T03:28:30.550Z,97.63
2022-12-09T03:31:03.116Z,97.55
2022-12-09T03:33:31.646Z,97.70
2022-12-09T03:36:04.121Z,97.60
2022-12-09T03:38:36.858Z,97.47
2022-12-09T03:41:21.438Z,97.58
2022-12-09T03:44:31.330Z,97.72
2022-12-09T03:46:58.795Z,97.54
2022-12-09T03:49:26.057Z,97.59
2022-12-09T03:52:27.077Z,97.66
2022-12-09T03:55:05.087Z,97.63
2022-12-09T03:57:35.574Z,97.76
2022-12-09T04:00:04.174Z,97.51
2022-12-09T04:02:39.875Z,97.58
2022-12-09T04:05:07.956Z,97.65
2022-12-09T04:07:35.014Z,97.53
2022-12-09T04:10:02.292Z,97.47
2022-12-09T04:12:29.254Z,97.30
2022-12-09T04:14:56.229Z,97.65
2022-12-09T04:17:23.553Z,97.35
2022-12-09T04:19:50.549Z,97.46
2022-12-09T04:22:18.728Z,97.43
2022-12-09T04:24:45.651Z,97.38
2022-12-09T04:27:13.263Z,97.45
2022-12-09T04:29:40.573Z,97.52
2022-12-09T04:32:07.952Z,97.14
2022-12-09T04:34:34.965Z,97.36
2022-12-09T04:37:01.893Z,97.35
2022-12-09T04:39:29.210Z,97.08
2022-12-09T04:41:56.506Z,97.07
2022-12-09T04:44:23.449Z,97.08
2022-12-09T04:46:50.887Z,96.95
2022-12-09T04:49:17.956Z,96.84
2022-12-09T04:51:45.149Z,97.17
2022-12-09T04:54:16.084Z,96.96
2022-12-09T04:56:44.629Z,97.06
2022-12-09T04:59:11.823Z,97.40
2022-12-09T05:01:39.167Z,97.18
2022-12-09T05:04:07.267Z,96.97
2022-12-09T05:06:34.562Z,97.22
2022-12-09T05:09:01.979Z,97.11
2022-12-09T05:11:29.664Z,96.92
2022-12-09T05:13:56.794Z,96.70
2022-12-09T05:16:24.226Z,96.82
2022-12-09T05:18:51.581Z,96.72
2022-12-09T05:21:21.050Z,96.70
2022-12-09T05:23:49.361Z,96.98
2022-12-09T05:26:20.673Z,96.54
2022-12-09T05:28:48.753Z,96.47
2022-12-09T05:31:20.426Z,96.69
2022-12-09T05:33:49.669Z,96.66
2022-12-09T05:36:24.293Z,96.32
2022-12-09T05:38:52.130Z,96.39
2022-12-09T05:41:20.393Z,96.45
2022-12-09T05:43:47.772Z,96.36
2022-12-09T05:46:15.769Z,96.62
2022-12-09T05:48:43.479Z,96.28
2022-12-09T05:51:28.497Z,96.60
2022-12-09T05:53:57.418Z,96.56
2022-12-09T05:56:26.715Z,96.48
2022-12-09T05:58:55.441Z,96.49
2022-12-09T06:01:24.985Z,96.53
2022-12-09T06:03:54.159Z,96.65
2022-12-09T06:06:26.894Z,96.63
2022-12-09T06:09:01.006Z,96.43
2022-12-09T06:11:29.339Z,96.63
2022-12-09T06:13:57.060Z,96.57
2022-12-09T06:16:25.195Z,96.90
2022-12-09T06:18:52.621Z,96.65
2022-12-09T06:21:21.397Z,96.61
2022-12-09T06:23:50.620Z,96.16
2022-12-09T06:26:26.981Z,96.25
2022-12-09T06:28:56.076Z,96.49
2022-12-09T06:31:23.953Z,96.36
2022-12-09T06:33:56.468Z,96.63
2022-12-09T06:36:27.020Z,96.57
2022-12-09T06:38:55.359Z,96.50
2022-12-09T06:41:23.228Z,96.29
2022-12-09T06:43:50.822Z,96.39
2022-12-09T06:46:23.777Z,96.36
2022-12-09T06:48:52.274Z,96.18
2022-12-09T06:51:20.935Z,96.07
2022-12-09T06:53:48.323Z,96.06
2022-12-09T06:56:16.227Z,96.21
2022-12-09T06:58:45.972Z,96.05
2022-12-09T07:01:18.391Z,96.22
2022-12-09T07:03:49.470Z,96.08
2022-12-09T07:06:30.355Z,96.13
2022-12-09T07:09:02.128Z,95.98
2022-12-09T07:11:29.529Z,96.15
2022-12-09T07:13:57.045Z,96.13
2022-12-09T07:16:24.877Z,96.27
2022-12-09T07:18:52.797Z,96.15
2022-12-09T07:21:22.154Z,95.87
2022-12-09T07:23:49.867Z,96.19
2022-12-09T07:26:18.481Z,96.35
2022-12-09T07:28:50.402Z,96.54
2022-12-09T07:31:26.601Z,96.07
2022-12-09T07:33:56.445Z,96.16
2022-12-09T07:36:26.635Z,96.44
2022-12-09T07:38:58.737Z,96.22
2022-12-09T07:41:26.571Z,96.26
2022-12-09T07:43:53.717Z,96.40
2022-12-09T07:46:23.621Z,96.44
2022-12-09T07:48:51.166Z,96.34
2022-12-09T07:51:18.741Z,96.21
2022-12-09T07:53:46.802Z,96.31
2022-12-09T07:56:15.837Z,96.60
2022-12-09T07:58:47.001Z,96.61
2022-12-09T08:01:18.009Z,96.56
2022-12-09T08:03:46.244Z,96.23
2022-12-09T08:06:18.073Z,96.62
2022-12-09T08:08:46.413Z,96.63
2022-12-09T08:11:17.156Z,96.68
2022-12-09T08:13:44.571Z,96.63
2022-12-09T08:16:14.901Z,96.75
2022-12-09T08:18:43.949Z,96.95
2022-12-09T08:21:16.742Z,96.88
2022-12-09T08:23:44.943Z,96.98
2022-12-09T08:26:15.342Z,96.74
2022-12-09T08:28:43.045Z,97.11
2022-12-09T08:31:14.418Z,96.89
2022-12-09T08:33:42.888Z,97.29
2022-12-09T08:36:26.418Z,97.26
2022-12-09T08:38:54.545Z,97.26
2022-12-09T08:41:38.592Z,97.33
2022-12-09T08:44:16.251Z,97.24
2022-12-09T08:46:50.320Z,97.36
2022-12-09T08:49:21.166Z,97.78
2022-12-09T08:51:50.958Z,97.58
2022-12-09T08:54:18.953Z,97.70
2022-12-09T08:56:48.473Z,97.97
2022-12-09T08:59:16.993Z,97.79
2022-12-09T09:01:44.764Z,98.19
2022-12-09T09:04:18.581Z,97.96
2022-12-09T09:06:49.665Z,98.36
2022-12-09T09:09:18.553Z,98.33
2022-12-09T09:11:46.137Z,98.60
2022-12-09T09:14:14.959Z,98.54
2022-12-09T09:16:45.274Z,98.77
2022-12-09T09:19:21.018Z,98.56
2022-12-09T09:21:49.765Z,98.76
2022-12-09T09:24:20.244Z,98.67
2022-12-09T09:26:50.145Z,98.92
2022-12-09T09:29:20.517Z,99.26
2022-12-09T09:31:49.519Z,99.49
2022-12-09T09:34:21.495Z,99.29
2022-12-09T09:36:51.197Z,99.25
2022-12-09T09:39:21.629Z,99.29
2022-12-09T09:41:59.593Z,99.34
2022-12-09T09:44:40.969Z,99.36
2022-12-09T09:47:41.671Z,99.64
2022-12-09T09:50:41.882Z,99.06
2022-12-09T09:53:27.551Z,99.57
2022-12-09T09:56:10.571Z,99.64
2022-12-09T09:59:35.780Z,99.40
2022-12-09T10:02:16.300Z,100.00
2022-12-09T10:05:24.645Z,99.48
2022-12-09T10:08:08.242Z,100.00
2022-12-09T10:10:58.635Z,100.00
2022-12-09T10:13:47.105Z,99.67
2022-12-09T10:16:41.489Z,100.00
2022-12-09T10:19:47.686Z,99.76
2022-12-09T10:22:31.421Z,99.38
2022-12-09T10:25:08.151Z,99.79
2022-12-09T10:27:56.783Z,100.00
2022-12-09T10:30:24.598Z,99.76
2022-12-09T10:32:54.428Z,100.00
2022-12-09T10:35:27.018Z,99.42
2022-12-09T10:37:57.043Z,99.72
2022-12-09T10:40:36.203Z,100.00
2022-12-09T10:43:42.043Z,100.00
2022-12-09T10:46:24.682Z,100.00
2022-12-09T10:48:58.817Z,100.00
2022-12-09T10:51:34.748Z,100.00
2022-12-09T10:54:15.310Z,99.96
2022-12-09T10:57:13.658Z,100.00
2022-12-09T10:59:56.223Z,99.75
2022-12-09T11:02:23.869Z,99.74
2022-12-09T11:04:51.377Z,100.00
2022-12-09T11:07:25.007Z,100.00
2022-12-09T11:09:58.704Z,100.00
2022-12-09T11:12:31.989Z,99.92
2022-12-09T11:15:26.433Z,100.00
2022-12-09T11:18:02.387Z,100.00
2022-12-09T11:20:32.498Z,100.00
2022-12-09T11:23:00.867Z,100.00
2022-12-09T11:25:36.058Z,100.00
2022-12-09T11:28:32.081Z,100.00
2022-12-09T11:31:28.394Z,100.00
2022-12-09T11:33:56.956Z,100.00
2022-12-09T11:36:44.116Z,100.00
2022-12-09T11:39:14.250Z,100.00
2022-12-09T11:42:17.052Z,100.00
2022-12-09T11:44:54.233Z,100.00
2022-12-09T11:50:32.378Z,100.00
2022-12-09T11:53:31.719Z,100.00
2022-12-09T11:56:27.771Z,99.69
2022-12-09T11:59:01.341Z,99.66
2022-12-09T12:01:45.187Z,98.87
2022-12-09T12:04:18.472Z,100.00
2022-12-09T12:06:56.640Z,100.00
2022-12-09T12:09:32.586Z,100.00
2022-12-09T12:12:36.500Z,100.00
2022-12-09T12:15:23.441Z,100.00
2022-12-09T12:17:55.794Z,100.00
2022-12-09T12:20:42.928Z,100.00
2022-12-09T12:23:26.905Z,100.00
2022-12-09T12:26:11.585Z,100.00
2022-12-09T12:29:29.999Z,100.00
2022-12-09T12:32:23.559Z,100.00
2022-12-09T12:35:36.735Z,100.00
2022-12-09T12:38:33.819Z,100.00
2022-12-09T12:41:13.269Z,100.00
2022-12-09T12:44:37.407Z,100.00
2022-12-09T12:47:30.575Z,100.00
2022-12-09T12:50:00.195Z,100.00
2022-12-09T12:52:55.516Z,100.00
2022-12-09T12:56:12.475Z,100.00
2022-12-09T12:59:08.502Z,99.53
2022-12-09T13:01:54.019Z,98.33
2022-12-09T13:04:35.273Z,99.81
2022-12-09T13:07:11.371Z,100.00
2022-12-09T13:09:45.723Z,100.00
2022-12-09T13:12:47.793Z,100.00
2022-12-09T13:15:23.642Z,100.00
2022-12-09T13:17:51.692Z,100.00
2022-12-09T13:20:33.108Z,100.00
2022-12-09T13:23:33.894Z,100.00
2022-12-09T13:26:18.888Z,100.00
2022-12-09T13:29:13.101Z,100.00
2022-12-09T13:32:05.333Z,100.00
2022-12-09T13:34:49.933Z,100.00
2022-12-09T13:37:37.025Z,100.00
2022-12-09T13:40:38.792Z,100.00
2022-12-09T13:43:29.981Z,100.00
2022-12-09T13:46:01.938Z,99.46
2022-12-09T13:48:28.782Z,99.50
2022-12-09T13:51:00.055Z,99.58
2022-12-09T13:53:34.073Z,100.00
2022-12-09T13:56:16.016Z,100.00
2022-12-09T13:59:30.691Z,100.00
2022-12-09T14:02:37.885Z,100.00
2022-12-09T14:05:26.214Z,100.00
2022-12-09T14:08:07.107Z,100.00
2022-12-09T14:10:48.068Z,100.00
2022-12-09T14:13:34.804Z,100.00
2022-12-09T14:16:26.291Z,100.00
2022-12-09T14:18:53.554Z,99.61
2022-12-09T14:21:31.495Z,99.48
2022-12-09T14:24:07.606Z,99.59
2022-12-09T14:27:01.790Z,99.69
2022-12-09T14:30:23.748Z,99.89
2022-12-09T14:32:50.560Z,99.44
2022-12-09T14:35:41.691Z,99.86
2022-12-09T14:38:29.200Z,99.84
2022-12-09T14:41:31.057Z,99.63
2022-12-09T14:44:08.899Z,100.00
2022-12-09T14:46:39.966Z,99.84
2022-12-09T14:49:27.309Z,99.65
2022-12-09T14:52:11.113Z,99.27
2022-12-09T14:54:44.760Z,99.22
2022-12-09T14:57:27.258Z,99.65
2022-12-09T14:59:57.047Z,99.53
2022-12-09T15:02:30.667Z,99.05
2022-12-09T15:05:01.757Z,99.16
2022-12-09T15:07:33.516Z,99.12
2022-12-09T15:10:17.584Z,99.15
2022-12-09T15:12:55.066Z,99.36
2022-12-09T15:15:31.406Z,99.36
2022-12-09T15:18:15.086Z,99.23
2022-12-09T15:20:42.994Z,99.15
2022-12-09T15:23:29.556Z,99.14
2022-12-09T15:26:18.256Z,98.75
2022-12-09T15:28:50.208Z,99.08
2022-12-09T15:31:26.971Z,98.82
2022-12-09T15:33:58.115Z,98.69
2022-12-09T15:36:41.380Z,99.03
2022-12-09T15:39:33.480Z,99.32
2022-12-09T15:42:10.810Z,98.66
2022-12-09T15:44:46.661Z,98.85
2022-12-09T15:47:41.792Z,98.90
2022-12-09T15:50:31.182Z,98.68
2022-12-09T15:53:43.711Z,98.71
2022-12-09T15:56:22.212Z,98.52
2022-12-09T15:58:54.003Z,98.77
2022-12-09T16:01:33.925Z,98.50
2022-12-09T16:04:03.553Z,98.36
2022-12-09T16:06:37.552Z,98.44
2022-12-09T16:09:15.147Z,98.54
2022-12-09T16:11:47.885Z,98.52
2022-12-09T16:14:17.802Z,98.18
2022-12-09T16:16:59.069Z,98.21
2022-12-09T16:19:38.640Z,98.16
2022-12-09T16:22:11.196Z,98.27
2022-12-09T16:25:13.761Z,98.23
2022-12-09T16:27:43.320Z,98.32
2022-12-09T16:30:23.142Z,98.20
2022-12-09T16:32:58.637Z,98.21
2022-12-09T16:35:54.366Z,97.99
2022-12-09T16:38:21.326Z,98.17
2022-12-09T16:40:53.995Z,97.86
2022-12-09T16:43:25.091Z,97.76
2022-12-09T16:45:53.103Z,97.86
2022-12-09T16:48:22.641Z,98.06
2022-12-09T16:51:11.287Z,98.11
2022-12-09T16:53:49.620Z,97.68
2022-12-09T16:56:28.074Z,97.76
2022-12-09T16:58:56.133Z,97.51
2022-12-09T17:01:46.446Z,97.96
2022-12-09T17:04:26.326Z,97.63
2022-12-09T17:06:53.682Z,97.68
2022-12-09T17:09:21.120Z,97.46
2022-12-09T17:11:49.165Z,97.75
2022-12-09T17:14:17.898Z,97.59
2022-12-09T17:16:45.032Z,97.83
2022-12-09T17:19:12.900Z,97.73
2022-12-09T17:21:39.825Z,97.46
2022-12-09T17:24:07.599Z,97.49
2022-12-09T17:26:34.617Z,97.55
2022-12-09T17:29:02.229Z,97.49
2022-12-09T17:31:29.664Z,97.58
2022-12-09T17:33:57.684Z,97.19
2022-12-09T17:36:24.629Z,97.29
2022-12-09T17:38:51.617Z,97.18
2022-12-09T17:41:23.314Z,97.16
2022-12-09T17:43:51.035Z,97.13
2022-12-09T17:46:18.508Z,97.20
2022-12-09T17:48:45.629Z,97.31
2022-12-09T17:51:17.795Z,97.13
2022-12-09T17:53:45.868Z,97.43
2022-12-09T17:56:19.794Z,97.46
2022-12-09T17:58:48.630Z,97.10
2022-12-09T18:01:20.461Z,97.36
2022-12-09T18:03:56.024Z,97.02
2022-12-09T18:06:25.589Z,96.87
2022-12-09T18:08:53.298Z,97.17
2022-12-09T18:11:21.868Z,97.08
2022-12-09T18:13:50.805Z,97.15
2022-12-09T18:16:18.428Z,97.21
2022-12-09T18:18:46.004Z,97.11
2022-12-09T18:21:16.343Z,96.76
2022-12-09T18:23:43.884Z,97.01
2022-12-09T18:26:17.916Z,97.02
2022-12-09T18:28:45.157Z,96.86
2022-12-09T18:31:21.584Z,96.95
2022-12-09T18:33:48.652Z,96.71
2022-12-09T18:36:22.696Z,96.51
2022-12-09T18:38:50.181Z,96.73
2022-12-09T18:41:24.236Z,96.93
2022-12-09T18:43:53.847Z,96.45
2022-12-09T18:46:32.408Z,96.60
2022-12-09T18:49:03.135Z,96.85
2022-12-09T18:51:31.263Z,96.63
2022-12-09T18:53:59.220Z,96.53
2022-12-09T18:56:27.042Z,96.96
2022-12-09T18:59:06.617Z,96.83
2022-12-09T19:01:39.671Z,96.69
2022-12-09T19:04:28.846Z,96.38
2022-12-09T19:06:58.606Z,96.77
2022-12-09T19:09:34.274Z,96.58
2022-12-09T19:12:37.800Z,96.72
2022-12-09T19:14:51.836Z,96.44
2022-12-09T19:17:18.888Z,96.58
2022-12-09T19:19:47.210Z,96.45
2022-12-09T19:22:14.565Z,96.65
2022-12-09T19:24:43.319Z,96.55
2022-12-09T19:27:10.590Z,96.49
2022-12-09T19:29:37.715Z,96.45
2022-12-09T19:32:13.875Z,96.32
2022-12-09T19:34:45.529Z,96.49
2022-12-09T19:37:13.009Z,96.71
2022-12-09T19:39:43.091Z,96.27
2022-12-09T19:42:10.100Z,96.56
2022-12-09T19:45:00.299Z,96.38
2022-12-09T19:47:24.322Z,96.32
2022-12-09T19:49:51.374Z,96.24
2022-12-09T19:52:18.352Z,96.72
2022-12-09T19:54:45.321Z,96.17
2022-12-09T19:57:12.277Z,96.47
2022-12-09T19:59:39.237Z,96.25
2022-12-09T20:02:08.022Z,96.26
2022-12-09T20:04:51.195Z,96.29
2022-12-09T20:07:19.792Z,96.29
2022-12-09T20:09:47.414Z,96.21
2022-12-09T20:12:14.490Z,96.17
2022-12-09T20:14:41.960Z,96.24
2022-12-09T20:17:08.967Z,96.17
2022-12-09T20:19:36.747Z,96.34
2022-12-09T20:22:04.348Z,96.15
2022-12-09T20:24:31.835Z,96.15
2022-12-09T20:26:59.527Z,96.50
2022-12-09T20:29:26.494Z,96.36
2022-12-09T20:31:53.549Z,96.42
2022-12-09T20:34:20.588Z,96.39
2022-12-09T20:36:48.468Z,96.12
2022-12-09T20:39:20.437Z,96.22
2022-12-09T20:41:48.662Z,96.36
2022-12-09T20:44:17.807Z,96.37
2022-12-09T20:46:50.180Z,95.92
2022-12-09T20:49:19.622Z,96.24
2022-12-09T20:51:48.511Z,96.32
2022-12-09T20:54:15.683Z,96.03
2022-12-09T20:56:42.768Z,96.36
2022-12-09T20:59:14.063Z,96.03
2022-12-09T21:01:41.478Z,96.22
2022-12-09T21:04:08.525Z,96.19
2022-12-09T21:06:38.708Z,96.25
2022-12-09T21:09:14.599Z,96.18
2022-12-09T21:11:41.757Z,96.33
2022-12-09T21:14:09.886Z,95.84
2022-12-09T21:16:42.320Z,95.99
2022-12-09T21:19:13.782Z,96.23
2022-12-09T21:21:48.374Z,96.17
2022-12-09T21:24:16.549Z,96.38
2022-12-09T21:26:44.352Z,96.06
2022-12-09T21:29:12.773Z,96.06
2022-12-09T21:31:41.553Z,96.35
2022-12-09T21:34:09.956Z,95.96
2022-12-09T21:36:43.386Z,96.18
2022-12-09T21:39:16.139Z,96.03
2022-12-09T21:41:43.820Z,96.24
2022-12-09T21:44:17.316Z,96.30
2022-12-09T21:46:45.093Z,95.93
2022-12-09T21:49:14.650Z,95.92
2022-12-09T21:51:42.233Z,96.11
2022-12-09T21:54:09.239Z,96.46
2022-12-09T21:56:36.873Z,96.11
2022-12-09T21:59:06.322Z,96.11
2022-12-09T22:01:39.839Z,96.13
2022-12-09T22:04:12.267Z,96.08
2022-12-09T22:06:39.687Z,96.31
2022-12-09T22:09:08.350Z,95.96
2022-12-09T22:11:37.446Z,96.42
2022-12-09T22:14:07.937Z,96.13
2022-12-09T22:16:41.640Z,96.16
2022-12-09T22:19:13.620Z,95.94
2022-12-09T22:21:40.764Z,96.19
2022-12-09T22:24:09.794Z,95.87
2022-12-09T22:26:36.870Z,96.33
2022-12-09T22:29:06.054Z,96.19
2022-12-09T22:31:36.735Z,96.07
2022-12-09T22:34:12.503Z,96.19
2022-12-09T22:36:40.986Z,95.98
2022-12-09T22:39:12.626Z,95.79
2022-12-09T22:41:39.632Z,96.13
2022-12-09T22:44:06.529Z,96.01
2022-12-09T22:46:34.458Z,96.39
2022-12-09T22:49:05.857Z,96.13
2022-12-09T22:51:36.043Z,96.02
2022-12-09T22:54:06.146Z,95.94
2022-12-09T22:56:35.046Z,96.29
2022-12-09T22:59:02.003Z,95.94
2022-12-09T23:01:32.823Z,96.29
2022-12-09T23:04:00.621Z,95.85
2022-12-09T23:06:29.200Z,96.05
2022-12-09T23:08:56.832Z,96.24
2022-12-09T23:11:27.328Z,95.86
2022-12-09T23:13:54.936Z,95.96
2022-12-09T23:16:24.913Z,95.83
2022-12-09T23:18:54.648Z,96.25
2022-12-09T23:21:30.131Z,95.87
2022-12-09T23:24:00.988Z,96.18
2022-12-09T23:26:31.622Z,96.29
2022-12-09T23:29:01.918Z,96.17
2022-12-09T23:31:32.885Z,96.06
2022-12-09T23:34:02.066Z,96.04
2022-12-09T23:36:33.222Z,96.17
2022-12-09T23:39:01.362Z,95.86
2022-12-09T23:41:30.263Z,95.84
2022-12-09T23:43:57.797Z,96.29
2022-12-09T23:46:27.503Z,95.99
2022-12-09T23:48:56.488Z,95.95
2022-12-09T23:51:26.442Z,95.67
2022-12-09T23:53:57.222Z,95.74
2022-12-09T23:56:27.615Z,96.06
2022-12-09T23:59:01.763Z,95.95
